Hebei Shijiazhuang — VRIS2 — position and weather

sailwx.info

Track history (hours):
 
Tides and Currents Weather Stations Pressure Air Temp Water Temp Dewpoint Dewpoint Depression Visibility Wind Speed Wind Dir Waves Ship Positions

Hebei Shijiazhuang

Last reported at 2016-Apr-26 07:32 UTC. Time now 2016-May-02 23:18 UTC.
Position N 37°41' E 122°43'.

Length 235 m.

Type: Cargo ship. MMSI: 477899000.

Date/timePositionNaut miles runAvg speedWind from/ knotsBaromVisibWave heightAir tempDewpointWater temp
2016-Apr-26 07:32N 37°41' E 122°43'1010.2
2016-Apr-26 06:33N 37°43' E 122°31'1010.6
2016-Apr-26 05:34N 37°42' E 122°18'1010.3
2016-Apr-26 04:33N 37°41' E 122°05'1110.7
2016-Apr-26 03:32N 37°40' E 121°51'1110.7
2016-Apr-26 02:33N 37°40' E 121°38'1010.0
2016-Apr-26 01:33N 37°35' E 121°27'3 0.1
2016-Apr-24 06:23N 37°35' E 121°23'32 4.6
2016-Apr-23 23:20N 37°43' E 122°03'912.1
2016-Apr-23 22:33N 37°44' E 122°15'1212.3
2016-Apr-23 21:34N 37°45' E 122°30'1312.2
2016-Apr-23 20:28N 37°44' E 122°47'1111.5
2016-Apr-23 19:29N 37°39' E 122°60'1111.0
2016-Apr-23 18:26N 37°28' E 123°06'1210.7
2016-Apr-23 17:17N 37°16' E 123°10'34812.1
2016-Apr-22 12:26N 31°31' E 124°01'8810.9
2016-Apr-22 04:20N 30°04' E 124°13'  
Track history (hours):
 
Tides and Currents Weather Stations Pressure Air Temp Water Temp Dewpoint Dewpoint Depression Visibility Wind Speed Wind Dir Waves Ship Positions

Hebei Shijiazhuang

Last reported at 2016-Apr-26 07:32 UTC. Time now 2016-May-02 23:18 UTC.
Position N 37°41' E 122°43'.

Length 235 m.

Type: Cargo ship. MMSI: 477899000.

Date/timePositionNaut miles runAvg speedWind from/ knotsBaromVisibWave heightAir tempDewpointWater temp
2016-Apr-26 07:32N 37°41' E 122°43'1010.2
2016-Apr-26 06:33N 37°43' E 122°31'1010.6
2016-Apr-26 05:34N 37°42' E 122°18'1010.3
2016-Apr-26 04:33N 37°41' E 122°05'1110.7
2016-Apr-26 03:32N 37°40' E 121°51'1110.7
2016-Apr-26 02:33N 37°40' E 121°38'1010.0
2016-Apr-26 01:33N 37°35' E 121°27'3 0.1
2016-Apr-24 06:23N 37°35' E 121°23'32 4.6
2016-Apr-23 23:20N 37°43' E 122°03'912.1
2016-Apr-23 22:33N 37°44' E 122°15'1212.3
2016-Apr-23 21:34N 37°45' E 122°30'1312.2
2016-Apr-23 20:28N 37°44' E 122°47'1111.5
2016-Apr-23 19:29N 37°39' E 122°60'1111.0
2016-Apr-23 18:26N 37°28' E 123°06'1210.7
2016-Apr-23 17:17N 37°16' E 123°10'34812.1
2016-Apr-22 12:26N 31°31' E 124°01'8810.9
2016-Apr-22 04:20N 30°04' E 124°13'  

Dump ship's entire track history